sensor_id;sensor_type;location;lat;lon;timestamp;P1;durP1;ratioP1;P2;durP2;ratioP2
17380;SDS011;8808;52.478;13.378;2023-05-10T00:02:00;9.53;;;5.00;;
17380;SDS011;8808;52.478;13.378;2023-05-10T00:04:27;7.93;;;4.60;;
17380;SDS011;8808;52.478;13.378;2023-05-10T00:06:54;9.03;;;5.30;;
17380;SDS011;8808;52.478;13.378;2023-05-10T00:09:21;8.23;;;4.93;;
17380;SDS011;8808;52.478;13.378;2023-05-10T00:11:48;8.57;;;5.17;;
17380;SDS011;8808;52.478;13.378;2023-05-10T00:14:16;7.03;;;4.73;;
17380;SDS011;8808;52.478;13.378;2023-05-10T00:16:43;8.30;;;4.90;;
17380;SDS011;8808;52.478;13.378;2023-05-10T00:19:10;8.10;;;4.50;;
17380;SDS011;8808;52.478;13.378;2023-05-10T00:21:37;9.87;;;5.47;;
17380;SDS011;8808;52.478;13.378;2023-05-10T00:24:04;9.10;;;4.90;;
17380;SDS011;8808;52.478;13.378;2023-05-10T00:26:32;7.97;;;5.03;;
17380;SDS011;8808;52.478;13.378;2023-05-10T00:28:58;9.67;;;5.20;;
17380;SDS011;8808;52.478;13.378;2023-05-10T00:31:27;7.47;;;4.70;;
17380;SDS011;8808;52.478;13.378;2023-05-10T00:33:54;9.97;;;4.90;;
17380;SDS011;8808;52.478;13.378;2023-05-10T00:36:21;8.67;;;5.30;;
17380;SDS011;8808;52.478;13.378;2023-05-10T00:38:48;9.23;;;4.80;;
17380;SDS011;8808;52.478;13.378;2023-05-10T00:41:15;6.53;;;4.57;;
17380;SDS011;8808;52.478;13.378;2023-05-10T00:43:42;9.70;;;5.10;;
17380;SDS011;8808;52.478;13.378;2023-05-10T00:46:09;9.13;;;5.20;;
17380;SDS011;8808;52.478;13.378;2023-05-10T00:48:38;8.00;;;5.00;;
17380;SDS011;8808;52.478;13.378;2023-05-10T00:51:05;12.50;;;5.27;;
17380;SDS011;8808;52.478;13.378;2023-05-10T00:53:32;9.87;;;5.23;;
17380;SDS011;8808;52.478;13.378;2023-05-10T00:56:01;8.67;;;5.30;;
17380;SDS011;8808;52.478;13.378;2023-05-10T00:58:28;9.73;;;6.00;;
17380;SDS011;8808;52.478;13.378;2023-05-10T01:03:31;9.40;;;5.40;;
17380;SDS011;8808;52.478;13.378;2023-05-10T01:06:00;10.53;;;5.80;;
17380;SDS011;8808;52.478;13.378;2023-05-10T01:08:28;11.50;;;6.03;;
17380;SDS011;8808;52.478;13.378;2023-05-10T01:10:55;12.20;;;5.47;;
17380;SDS011;8808;52.478;13.378;2023-05-10T01:13:27;8.30;;;6.20;;
17380;SDS011;8808;52.478;13.378;2023-05-10T01:15:57;11.40;;;5.70;;
17380;SDS011;8808;52.478;13.378;2023-05-10T01:18:27;8.73;;;5.07;;
17380;SDS011;8808;52.478;13.378;2023-05-10T01:20:58;10.07;;;5.60;;
17380;SDS011;8808;52.478;13.378;2023-05-10T01:23:43;11.30;;;6.30;;
17380;SDS011;8808;52.478;13.378;2023-05-10T01:26:39;13.17;;;5.83;;
17380;SDS011;8808;52.478;13.378;2023-05-10T01:29:33;12.43;;;5.77;;
17380;SDS011;8808;52.478;13.378;2023-05-10T01:32:25;10.23;;;5.87;;
17380;SDS011;8808;52.478;13.378;2023-05-10T01:34:59;11.67;;;5.60;;
17380;SDS011;8808;52.478;13.378;2023-05-10T01:37:31;10.37;;;5.83;;
17380;SDS011;8808;52.478;13.378;2023-05-10T01:40:08;11.13;;;6.33;;
17380;SDS011;8808;52.478;13.378;2023-05-10T01:42:43;11.97;;;5.07;;
17380;SDS011;8808;52.478;13.378;2023-05-10T01:45:14;7.97;;;5.57;;
17380;SDS011;8808;52.478;13.378;2023-05-10T01:47:49;8.87;;;5.60;;
17380;SDS011;8808;52.478;13.378;2023-05-10T01:50:22;9.83;;;5.80;;
17380;SDS011;8808;52.478;13.378;2023-05-10T01:52:54;9.17;;;5.57;;
17380;SDS011;8808;52.478;13.378;2023-05-10T01:55:24;9.90;;;5.40;;
17380;SDS011;8808;52.478;13.378;2023-05-10T01:57:55;13.60;;;5.90;;
17380;SDS011;8808;52.478;13.378;2023-05-10T02:00:29;9.93;;;5.70;;
17380;SDS011;8808;52.478;13.378;2023-05-10T02:02:58;8.37;;;4.77;;
17380;SDS011;8808;52.478;13.378;2023-05-10T02:05:30;9.13;;;5.80;;
17380;SDS011;8808;52.478;13.378;2023-05-10T02:07:59;10.27;;;5.77;;
17380;SDS011;8808;52.478;13.378;2023-05-10T02:10:27;9.27;;;5.40;;
17380;SDS011;8808;52.478;13.378;2023-05-10T02:12:55;9.87;;;5.60;;
17380;SDS011;8808;52.478;13.378;2023-05-10T02:15:25;9.33;;;5.27;;
17380;SDS011;8808;52.478;13.378;2023-05-10T02:17:54;8.87;;;5.47;;
17380;SDS011;8808;52.478;13.378;2023-05-10T02:20:24;9.03;;;5.30;;
17380;SDS011;8808;52.478;13.378;2023-05-10T02:22:52;9.60;;;5.13;;
17380;SDS011;8808;52.478;13.378;2023-05-10T02:25:22;9.20;;;5.80;;
17380;SDS011;8808;52.478;13.378;2023-05-10T02:27:50;8.50;;;5.27;;
17380;SDS011;8808;52.478;13.378;2023-05-10T02:30:20;10.97;;;6.30;;
17380;SDS011;8808;52.478;13.378;2023-05-10T02:32:48;9.20;;;5.27;;
17380;SDS011;8808;52.478;13.378;2023-05-10T02:35:16;9.87;;;5.30;;
17380;SDS011;8808;52.478;13.378;2023-05-10T02:37:46;8.67;;;4.97;;
17380;SDS011;8808;52.478;13.378;2023-05-10T02:40:14;10.87;;;5.33;;
17380;SDS011;8808;52.478;13.378;2023-05-10T02:42:43;11.47;;;5.50;;
17380;SDS011;8808;52.478;13.378;2023-05-10T02:45:12;10.90;;;5.80;;
17380;SDS011;8808;52.478;13.378;2023-05-10T02:47:41;10.83;;;5.37;;
17380;SDS011;8808;52.478;13.378;2023-05-10T02:50:08;8.37;;;5.27;;
17380;SDS011;8808;52.478;13.378;2023-05-10T02:52:40;9.77;;;5.53;;
17380;SDS011;8808;52.478;13.378;2023-05-10T02:55:11;8.70;;;5.00;;
17380;SDS011;8808;52.478;13.378;2023-05-10T02:57:41;10.63;;;5.30;;
17380;SDS011;8808;52.478;13.378;2023-05-10T03:00:10;9.60;;;5.10;;
17380;SDS011;8808;52.478;13.378;2023-05-10T03:02:37;8.70;;;5.23;;
17380;SDS011;8808;52.478;13.378;2023-05-10T03:05:05;10.87;;;5.30;;
17380;SDS011;8808;52.478;13.378;2023-05-10T03:07:32;9.87;;;5.40;;
17380;SDS011;8808;52.478;13.378;2023-05-10T03:09:59;9.63;;;5.23;;
17380;SDS011;8808;52.478;13.378;2023-05-10T03:12:30;8.60;;;5.17;;
17380;SDS011;8808;52.478;13.378;2023-05-10T03:15:07;10.07;;;5.10;;
17380;SDS011;8808;52.478;13.378;2023-05-10T03:17:41;12.03;;;5.13;;
17380;SDS011;8808;52.478;13.378;2023-05-10T03:20:15;8.07;;;5.33;;
17380;SDS011;8808;52.478;13.378;2023-05-10T03:22:50;8.53;;;4.93;;
17380;SDS011;8808;52.478;13.378;2023-05-10T03:25:19;11.40;;;4.90;;
17380;SDS011;8808;52.478;13.378;2023-05-10T03:27:49;11.17;;;4.77;;
17380;SDS011;8808;52.478;13.378;2023-05-10T03:30:18;9.03;;;5.00;;
17380;SDS011;8808;52.478;13.378;2023-05-10T03:32:45;8.33;;;4.50;;
17380;SDS011;8808;52.478;13.378;2023-05-10T03:35:12;8.23;;;4.70;;
17380;SDS011;8808;52.478;13.378;2023-05-10T03:37:39;11.27;;;4.33;;
17380;SDS011;8808;52.478;13.378;2023-05-10T03:40:07;7.80;;;4.80;;
17380;SDS011;8808;52.478;13.378;2023-05-10T03:42:34;9.53;;;5.33;;
17380;SDS011;8808;52.478;13.378;2023-05-10T03:45:03;8.70;;;5.23;;
17380;SDS011;8808;52.478;13.378;2023-05-10T03:47:30;8.13;;;4.70;;
17380;SDS011;8808;52.478;13.378;2023-05-10T03:49:57;8.20;;;4.80;;
17380;SDS011;8808;52.478;13.378;2023-05-10T03:52:24;6.47;;;4.40;;
17380;SDS011;8808;52.478;13.378;2023-05-10T03:54:51;8.83;;;5.07;;
17380;SDS011;8808;52.478;13.378;2023-05-10T03:57:18;8.53;;;5.10;;
17380;SDS011;8808;52.478;13.378;2023-05-10T03:59:45;9.17;;;4.83;;
17380;SDS011;8808;52.478;13.378;2023-05-10T04:02:13;8.00;;;4.63;;
17380;SDS011;8808;52.478;13.378;2023-05-10T04:04:40;8.47;;;5.03;;
17380;SDS011;8808;52.478;13.378;2023-05-10T04:07:08;7.83;;;4.83;;
17380;SDS011;8808;52.478;13.378;2023-05-10T04:09:35;8.07;;;4.23;;
17380;SDS011;8808;52.478;13.378;2023-05-10T04:12:02;7.57;;;4.53;;
17380;SDS011;8808;52.478;13.378;2023-05-10T04:14:30;8.00;;;4.70;;
17380;SDS011;8808;52.478;13.378;2023-05-10T04:16:57;9.47;;;4.57;;
17380;SDS011;8808;52.478;13.378;2023-05-10T04:19:28;7.90;;;4.80;;
17380;SDS011;8808;52.478;13.378;2023-05-10T04:21:55;9.07;;;4.30;;
17380;SDS011;8808;52.478;13.378;2023-05-10T04:24:22;9.87;;;4.53;;
17380;SDS011;8808;52.478;13.378;2023-05-10T04:26:50;7.97;;;4.27;;
17380;SDS011;8808;52.478;13.378;2023-05-10T04:29:17;6.37;;;4.23;;
17380;SDS011;8808;52.478;13.378;2023-05-10T04:31:43;9.67;;;4.20;;
17380;SDS011;8808;52.478;13.378;2023-05-10T04:34:11;10.70;;;5.10;;
17380;SDS011;8808;52.478;13.378;2023-05-10T04:36:39;6.53;;;4.23;;
17380;SDS011;8808;52.478;13.378;2023-05-10T04:39:06;6.10;;;4.40;;
17380;SDS011;8808;52.478;13.378;2023-05-10T04:41:34;8.03;;;4.27;;
17380;SDS011;8808;52.478;13.378;2023-05-10T04:44:01;8.70;;;4.03;;
17380;SDS011;8808;52.478;13.378;2023-05-10T04:46:28;7.83;;;4.00;;
17380;SDS011;8808;52.478;13.378;2023-05-10T04:48:55;8.00;;;4.13;;
17380;SDS011;8808;52.478;13.378;2023-05-10T04:51:22;9.13;;;4.20;;
17380;SDS011;8808;52.478;13.378;2023-05-10T04:53:50;9.00;;;4.63;;
17380;SDS011;8808;52.478;13.378;2023-05-10T04:56:17;9.47;;;4.37;;
17380;SDS011;8808;52.478;13.378;2023-05-10T04:58:44;10.83;;;4.57;;
17380;SDS011;8808;52.478;13.378;2023-05-10T05:01:11;8.93;;;4.13;;
17380;SDS011;8808;52.478;13.378;2023-05-10T05:03:38;8.27;;;4.23;;
17380;SDS011;8808;52.478;13.378;2023-05-10T05:06:05;9.73;;;3.73;;
17380;SDS011;8808;52.478;13.378;2023-05-10T05:08:32;8.80;;;3.80;;
17380;SDS011;8808;52.478;13.378;2023-05-10T05:11:01;7.53;;;4.17;;
17380;SDS011;8808;52.478;13.378;2023-05-10T05:13:28;9.77;;;4.30;;
17380;SDS011;8808;52.478;13.378;2023-05-10T05:15:55;6.30;;;3.87;;
17380;SDS011;8808;52.478;13.378;2023-05-10T05:18:22;6.13;;;3.40;;
17380;SDS011;8808;52.478;13.378;2023-05-10T05:20:48;5.73;;;3.50;;
17380;SDS011;8808;52.478;13.378;2023-05-10T05:23:15;6.07;;;3.60;;
17380;SDS011;8808;52.478;13.378;2023-05-10T05:25:43;5.23;;;3.60;;
17380;SDS011;8808;52.478;13.378;2023-05-10T05:28:11;8.23;;;3.87;;
17380;SDS011;8808;52.478;13.378;2023-05-10T05:30:39;5.90;;;3.80;;
17380;SDS011;8808;52.478;13.378;2023-05-10T05:33:06;5.97;;;3.37;;
17380;SDS011;8808;52.478;13.378;2023-05-10T05:35:33;4.53;;;3.60;;
17380;SDS011;8808;52.478;13.378;2023-05-10T05:38:00;7.27;;;3.53;;
17380;SDS011;8808;52.478;13.378;2023-05-10T05:40:27;7.77;;;3.73;;
17380;SDS011;8808;52.478;13.378;2023-05-10T05:42:54;6.93;;;3.70;;
17380;SDS011;8808;52.478;13.378;2023-05-10T05:45:22;6.43;;;3.27;;
17380;SDS011;8808;52.478;13.378;2023-05-10T05:47:49;5.67;;;3.20;;
17380;SDS011;8808;52.478;13.378;2023-05-10T05:50:16;7.03;;;3.20;;
17380;SDS011;8808;52.478;13.378;2023-05-10T05:52:43;6.53;;;3.13;;
17380;SDS011;8808;52.478;13.378;2023-05-10T05:55:10;5.57;;;3.30;;
17380;SDS011;8808;52.478;13.378;2023-05-10T05:57:37;7.57;;;3.03;;
17380;SDS011;8808;52.478;13.378;2023-05-10T06:00:05;8.70;;;3.67;;
17380;SDS011;8808;52.478;13.378;2023-05-10T06:02:34;7.70;;;3.30;;
17380;SDS011;8808;52.478;13.378;2023-05-10T06:05:01;5.83;;;3.20;;
17380;SDS011;8808;52.478;13.378;2023-05-10T06:07:28;7.57;;;3.20;;
17380;SDS011;8808;52.478;13.378;2023-05-10T06:09:55;7.47;;;3.17;;
17380;SDS011;8808;52.478;13.378;2023-05-10T06:12:22;7.03;;;3.03;;
17380;SDS011;8808;52.478;13.378;2023-05-10T06:14:49;7.27;;;3.47;;
17380;SDS011;8808;52.478;13.378;2023-05-10T06:17:16;4.57;;;3.00;;
17380;SDS011;8808;52.478;13.378;2023-05-10T06:19:45;7.07;;;3.20;;
17380;SDS011;8808;52.478;13.378;2023-05-10T06:22:12;7.60;;;3.40;;
17380;SDS011;8808;52.478;13.378;2023-05-10T06:24:39;7.27;;;3.03;;
17380;SDS011;8808;52.478;13.378;2023-05-10T06:27:06;4.37;;;2.93;;
17380;SDS011;8808;52.478;13.378;2023-05-10T06:29:33;4.47;;;2.90;;
17380;SDS011;8808;52.478;13.378;2023-05-10T06:32:00;6.80;;;2.80;;
17380;SDS011;8808;52.478;13.378;2023-05-10T06:34:27;4.17;;;3.00;;
17380;SDS011;8808;52.478;13.378;2023-05-10T06:36:56;5.70;;;2.90;;
17380;SDS011;8808;52.478;13.378;2023-05-10T06:39:22;7.97;;;2.93;;
17380;SDS011;8808;52.478;13.378;2023-05-10T06:41:50;8.53;;;2.90;;
17380;SDS011;8808;52.478;13.378;2023-05-10T06:44:17;3.80;;;2.60;;
17380;SDS011;8808;52.478;13.378;2023-05-10T06:46:44;5.03;;;2.60;;
17380;SDS011;8808;52.478;13.378;2023-05-10T06:49:11;7.23;;;2.73;;
17380;SDS011;8808;52.478;13.378;2023-05-10T06:51:38;5.97;;;2.57;;
17380;SDS011;8808;52.478;13.378;2023-05-10T06:54:06;7.10;;;2.53;;
17380;SDS011;8808;52.478;13.378;2023-05-10T06:56:33;4.13;;;2.60;;
17380;SDS011;8808;52.478;13.378;2023-05-10T06:59:00;5.03;;;2.93;;
17380;SDS011;8808;52.478;13.378;2023-05-10T07:01:28;7.60;;;2.60;;
17380;SDS011;8808;52.478;13.378;2023-05-10T07:03:55;4.80;;;2.60;;
17380;SDS011;8808;52.478;13.378;2023-05-10T07:06:21;4.50;;;2.33;;
17380;SDS011;8808;52.478;13.378;2023-05-10T07:08:48;6.33;;;2.50;;
17380;SDS011;8808;52.478;13.378;2023-05-10T07:11:17;6.40;;;2.70;;
17380;SDS011;8808;52.478;13.378;2023-05-10T07:13:43;5.20;;;2.70;;
17380;SDS011;8808;52.478;13.378;2023-05-10T07:16:11;4.07;;;2.40;;
17380;SDS011;8808;52.478;13.378;2023-05-10T07:18:38;3.03;;;2.40;;
17380;SDS011;8808;52.478;13.378;2023-05-10T07:21:05;3.63;;;2.33;;
17380;SDS011;8808;52.478;13.378;2023-05-10T07:23:32;5.77;;;2.40;;
17380;SDS011;8808;52.478;13.378;2023-05-10T07:25:59;5.27;;;2.63;;
17380;SDS011;8808;52.478;13.378;2023-05-10T07:28:28;3.93;;;2.47;;
17380;SDS011;8808;52.478;13.378;2023-05-10T07:30:55;3.40;;;2.30;;
17380;SDS011;8808;52.478;13.378;2023-05-10T07:33:22;4.10;;;2.67;;
17380;SDS011;8808;52.478;13.378;2023-05-10T07:35:49;3.10;;;2.10;;
17380;SDS011;8808;52.478;13.378;2023-05-10T07:38:16;3.47;;;2.30;;
17380;SDS011;8808;52.478;13.378;2023-05-10T07:40:43;4.37;;;2.00;;
17380;SDS011;8808;52.478;13.378;2023-05-10T07:43:10;5.43;;;2.53;;
17380;SDS011;8808;52.478;13.378;2023-05-10T07:45:39;3.27;;;2.27;;
17380;SDS011;8808;52.478;13.378;2023-05-10T07:48:06;4.80;;;2.33;;
17380;SDS011;8808;52.478;13.378;2023-05-10T07:50:33;6.13;;;2.43;;
17380;SDS011;8808;52.478;13.378;2023-05-10T07:53:00;3.73;;;2.10;;
17380;SDS011;8808;52.478;13.378;2023-05-10T07:55:27;3.30;;;2.07;;
17380;SDS011;8808;52.478;13.378;2023-05-10T07:57:53;4.63;;;2.40;;
17380;SDS011;8808;52.478;13.378;2023-05-10T08:00:21;9.83;;;2.80;;
17380;SDS011;8808;52.478;13.378;2023-05-10T08:02:49;6.33;;;2.37;;
17380;SDS011;8808;52.478;13.378;2023-05-10T08:05:16;11.93;;;2.47;;
17380;SDS011;8808;52.478;13.378;2023-05-10T08:07:43;2.90;;;2.00;;
17380;SDS011;8808;52.478;13.378;2023-05-10T08:10:10;6.53;;;2.23;;
17380;SDS011;8808;52.478;13.378;2023-05-10T08:12:37;2.90;;;2.40;;
17380;SDS011;8808;52.478;13.378;2023-05-10T08:15:05;3.57;;;2.50;;
17380;SDS011;8808;52.478;13.378;2023-05-10T08:17:32;3.60;;;2.37;;
17380;SDS011;8808;52.478;13.378;2023-05-10T08:20:01;7.43;;;2.57;;
17380;SDS011;8808;52.478;13.378;2023-05-10T08:22:28;5.83;;;2.40;;
17380;SDS011;8808;52.478;13.378;2023-05-10T08:24:55;3.90;;;2.30;;
17380;SDS011;8808;52.478;13.378;2023-05-10T08:27:22;7.30;;;2.30;;
17380;SDS011;8808;52.478;13.378;2023-05-10T08:29:49;3.87;;;2.40;;
17380;SDS011;8808;52.478;13.378;2023-05-10T08:32:16;4.00;;;2.50;;
17380;SDS011;8808;52.478;13.378;2023-05-10T08:34:43;4.03;;;2.53;;
17380;SDS011;8808;52.478;13.378;2023-05-10T08:37:11;4.07;;;2.50;;
17380;SDS011;8808;52.478;13.378;2023-05-10T08:39:38;4.27;;;2.30;;
17380;SDS011;8808;52.478;13.378;2023-05-10T08:42:05;2.38;;;2.05;;
17380;SDS011;8808;52.478;13.378;2023-05-10T08:44:34;4.70;;;2.90;;
17380;SDS011;8808;52.478;13.378;2023-05-10T08:47:02;4.90;;;2.40;;
17380;SDS011;8808;52.478;13.378;2023-05-10T08:49:32;3.65;;;2.35;;
17380;SDS011;8808;52.478;13.378;2023-05-10T08:52:00;6.07;;;2.13;;
17380;SDS011;8808;52.478;13.378;2023-05-10T08:54:30;3.40;;;2.22;;
17380;SDS011;8808;52.478;13.378;2023-05-10T08:56:58;9.70;;;2.30;;
17380;SDS011;8808;52.478;13.378;2023-05-10T08:59:26;5.95;;;2.38;;
17380;SDS011;8808;52.478;13.378;2023-05-10T09:01:53;3.03;;;2.20;;
17380;SDS011;8808;52.478;13.378;2023-05-10T09:04:23;4.60;;;2.60;;
17380;SDS011;8808;52.478;13.378;2023-05-10T09:06:50;4.40;;;2.45;;
17380;SDS011;8808;52.478;13.378;2023-05-10T09:09:17;6.85;;;2.83;;
17380;SDS011;8808;52.478;13.378;2023-05-10T09:11:47;5.45;;;2.28;;
17380;SDS011;8808;52.478;13.378;2023-05-10T09:14:14;3.00;;;2.20;;
17380;SDS011;8808;52.478;13.378;2023-05-10T09:16:42;4.07;;;2.55;;
17380;SDS011;8808;52.478;13.378;2023-05-10T09:19:09;4.78;;;2.67;;
17380;SDS011;8808;52.478;13.378;2023-05-10T09:21:36;3.00;;;2.20;;
17380;SDS011;8808;52.478;13.378;2023-05-10T09:24:04;5.15;;;2.10;;
17380;SDS011;8808;52.478;13.378;2023-05-10T09:26:32;7.85;;;2.60;;
17380;SDS011;8808;52.478;13.378;2023-05-10T09:29:03;4.55;;;2.42;;
17380;SDS011;8808;52.478;13.378;2023-05-10T09:31:44;3.20;;;2.47;;
17380;SDS011;8808;52.478;13.378;2023-05-10T09:34:15;5.80;;;2.38;;
17380;SDS011;8808;52.478;13.378;2023-05-10T09:36:53;11.05;;;2.58;;
17380;SDS011;8808;52.478;13.378;2023-05-10T09:39:21;3.65;;;2.25;;
17380;SDS011;8808;52.478;13.378;2023-05-10T09:41:57;5.20;;;2.78;;
17380;SDS011;8808;52.478;13.378;2023-05-10T09:44:27;4.75;;;2.33;;
17380;SDS011;8808;52.478;13.378;2023-05-10T09:46:53;4.85;;;2.28;;
17380;SDS011;8808;52.478;13.378;2023-05-10T09:49:21;4.40;;;2.53;;
17380;SDS011;8808;52.478;13.378;2023-05-10T09:51:57;4.55;;;2.75;;
17380;SDS011;8808;52.478;13.378;2023-05-10T09:54:26;4.15;;;2.50;;
17380;SDS011;8808;52.478;13.378;2023-05-10T09:56:53;2.97;;;2.20;;
17380;SDS011;8808;52.478;13.378;2023-05-10T09:59:20;4.57;;;2.42;;
17380;SDS011;8808;52.478;13.378;2023-05-10T10:01:50;3.25;;;2.35;;
17380;SDS011;8808;52.478;13.378;2023-05-10T10:04:17;3.97;;;2.40;;
17380;SDS011;8808;52.478;13.378;2023-05-10T10:06:46;4.07;;;2.85;;
17380;SDS011;8808;52.478;13.378;2023-05-10T10:09:24;8.85;;;2.83;;
17380;SDS011;8808;52.478;13.378;2023-05-10T10:11:51;4.53;;;2.53;;
17380;SDS011;8808;52.478;13.378;2023-05-10T10:14:20;4.28;;;2.25;;
17380;SDS011;8808;52.478;13.378;2023-05-10T10:16:48;3.78;;;2.47;;
17380;SDS011;8808;52.478;13.378;2023-05-10T10:19:18;6.10;;;2.60;;
17380;SDS011;8808;52.478;13.378;2023-05-10T10:21:45;4.68;;;2.53;;
17380;SDS011;8808;52.478;13.378;2023-05-10T10:24:12;5.75;;;2.45;;
17380;SDS011;8808;52.478;13.378;2023-05-10T10:26:39;4.65;;;2.42;;
17380;SDS011;8808;52.478;13.378;2023-05-10T10:29:10;4.07;;;2.45;;
17380;SDS011;8808;52.478;13.378;2023-05-10T10:31:45;3.65;;;2.35;;
17380;SDS011;8808;52.478;13.378;2023-05-10T10:34:22;3.65;;;2.55;;
17380;SDS011;8808;52.478;13.378;2023-05-10T10:36:53;3.83;;;2.38;;
17380;SDS011;8808;52.478;13.378;2023-05-10T10:39:22;5.40;;;2.85;;
17380;SDS011;8808;52.478;13.378;2023-05-10T10:41:51;2.85;;;2.42;;
17380;SDS011;8808;52.478;13.378;2023-05-10T10:44:22;3.88;;;2.30;;
17380;SDS011;8808;52.478;13.378;2023-05-10T10:47:03;4.95;;;2.70;;
17380;SDS011;8808;52.478;13.378;2023-05-10T10:49:37;5.53;;;2.40;;
17380;SDS011;8808;52.478;13.378;2023-05-10T10:52:14;3.53;;;2.40;;
17380;SDS011;8808;52.478;13.378;2023-05-10T10:54:49;3.33;;;2.20;;
17380;SDS011;8808;52.478;13.378;2023-05-10T10:57:18;5.05;;;2.47;;
17380;SDS011;8808;52.478;13.378;2023-05-10T10:59:46;3.30;;;2.70;;
17380;SDS011;8808;52.478;13.378;2023-05-10T11:02:32;4.05;;;2.42;;
17380;SDS011;8808;52.478;13.378;2023-05-10T11:05:01;5.57;;;2.38;;
17380;SDS011;8808;52.478;13.378;2023-05-10T11:07:52;5.80;;;2.30;;
17380;SDS011;8808;52.478;13.378;2023-05-10T11:10:20;3.53;;;2.15;;
17380;SDS011;8808;52.478;13.378;2023-05-10T11:12:51;3.40;;;2.53;;
17380;SDS011;8808;52.478;13.378;2023-05-10T11:15:19;3.38;;;2.28;;
17380;SDS011;8808;52.478;13.378;2023-05-10T11:17:47;3.13;;;2.00;;
17380;SDS011;8808;52.478;13.378;2023-05-10T11:20:18;3.17;;;2.20;;
17380;SDS011;8808;52.478;13.378;2023-05-10T11:22:51;3.30;;;2.38;;
17380;SDS011;8808;52.478;13.378;2023-05-10T11:25:19;2.88;;;2.10;;
17380;SDS011;8808;52.478;13.378;2023-05-10T11:27:47;4.32;;;2.58;;
17380;SDS011;8808;52.478;13.378;2023-05-10T11:30:14;4.68;;;2.30;;
17380;SDS011;8808;52.478;13.378;2023-05-10T11:32:41;3.10;;;2.35;;
17380;SDS011;8808;52.478;13.378;2023-05-10T11:35:08;6.70;;;2.10;;
17380;SDS011;8808;52.478;13.378;2023-05-10T11:37:38;11.25;;;2.60;;
17380;SDS011;8808;52.478;13.378;2023-05-10T11:40:09;3.65;;;2.10;;
17380;SDS011;8808;52.478;13.378;2023-05-10T11:42:36;3.22;;;2.33;;
17380;SDS011;8808;52.478;13.378;2023-05-10T11:45:04;4.30;;;2.28;;
17380;SDS011;8808;52.478;13.378;2023-05-10T11:47:31;3.60;;;1.92;;
17380;SDS011;8808;52.478;13.378;2023-05-10T11:50:00;3.55;;;2.38;;
17380;SDS011;8808;52.478;13.378;2023-05-10T11:52:28;4.55;;;2.17;;
17380;SDS011;8808;52.478;13.378;2023-05-10T11:54:57;5.47;;;2.38;;
17380;SDS011;8808;52.478;13.378;2023-05-10T11:57:26;7.40;;;2.30;;
17380;SDS011;8808;52.478;13.378;2023-05-10T11:59:54;8.23;;;2.50;;
17380;SDS011;8808;52.478;13.378;2023-05-10T12:02:21;3.53;;;2.20;;
17380;SDS011;8808;52.478;13.378;2023-05-10T12:04:48;2.90;;;2.15;;
17380;SDS011;8808;52.478;13.378;2023-05-10T12:07:15;4.75;;;2.30;;
17380;SDS011;8808;52.478;13.378;2023-05-10T12:09:42;4.93;;;2.88;;
17380;SDS011;8808;52.478;13.378;2023-05-10T12:12:11;5.57;;;2.60;;
17380;SDS011;8808;52.478;13.378;2023-05-10T12:14:43;3.58;;;2.30;;
17380;SDS011;8808;52.478;13.378;2023-05-10T12:17:11;3.67;;;2.20;;
17380;SDS011;8808;52.478;13.378;2023-05-10T12:19:38;6.15;;;2.08;;
17380;SDS011;8808;52.478;13.378;2023-05-10T12:22:06;3.55;;;2.20;;
17380;SDS011;8808;52.478;13.378;2023-05-10T12:24:33;3.72;;;2.50;;
17380;SDS011;8808;52.478;13.378;2023-05-10T12:27:04;5.63;;;2.10;;
17380;SDS011;8808;52.478;13.378;2023-05-10T12:29:34;7.28;;;2.30;;
17380;SDS011;8808;52.478;13.378;2023-05-10T12:32:01;2.70;;;2.30;;
17380;SDS011;8808;52.478;13.378;2023-05-10T12:34:30;2.80;;;2.50;;
17380;SDS011;8808;52.478;13.378;2023-05-10T12:36:59;6.03;;;2.58;;
17380;SDS011;8808;52.478;13.378;2023-05-10T12:39:37;5.55;;;2.58;;
17380;SDS011;8808;52.478;13.378;2023-05-10T12:42:05;5.40;;;2.50;;
17380;SDS011;8808;52.478;13.378;2023-05-10T12:44:34;4.97;;;2.63;;
17380;SDS011;8808;52.478;13.378;2023-05-10T12:47:01;9.13;;;2.38;;
17380;SDS011;8808;52.478;13.378;2023-05-10T12:49:28;3.50;;;2.10;;
17380;SDS011;8808;52.478;13.378;2023-05-10T12:51:55;7.30;;;2.83;;
17380;SDS011;8808;52.478;13.378;2023-05-10T12:54:22;4.97;;;2.10;;
17380;SDS011;8808;52.478;13.378;2023-05-10T12:56:49;5.10;;;2.35;;
17380;SDS011;8808;52.478;13.378;2023-05-10T12:59:16;7.25;;;2.50;;
17380;SDS011;8808;52.478;13.378;2023-05-10T13:01:44;6.60;;;2.50;;
17380;SDS011;8808;52.478;13.378;2023-05-10T13:04:11;5.68;;;2.40;;
17380;SDS011;8808;52.478;13.378;2023-05-10T13:06:38;3.13;;;2.47;;
17380;SDS011;8808;52.478;13.378;2023-05-10T13:09:05;4.45;;;2.30;;
17380;SDS011;8808;52.478;13.378;2023-05-10T13:11:32;3.60;;;2.60;;
17380;SDS011;8808;52.478;13.378;2023-05-10T13:13:59;5.05;;;2.30;;
17380;SDS011;8808;52.478;13.378;2023-05-10T13:16:26;2.90;;;2.50;;
17380;SDS011;8808;52.478;13.378;2023-05-10T13:18:55;3.83;;;2.40;;
17380;SDS011;8808;52.478;13.378;2023-05-10T13:21:22;4.45;;;2.60;;
17380;SDS011;8808;52.478;13.378;2023-05-10T13:23:52;5.60;;;2.50;;
17380;SDS011;8808;52.478;13.378;2023-05-10T13:26:19;3.38;;;2.42;;
17380;SDS011;8808;52.478;13.378;2023-05-10T13:28:46;3.60;;;2.40;;
17380;SDS011;8808;52.478;13.378;2023-05-10T13:31:13;5.20;;;2.63;;
17380;SDS011;8808;52.478;13.378;2023-05-10T13:33:40;3.45;;;2.30;;
17380;SDS011;8808;52.478;13.378;2023-05-10T13:36:09;4.80;;;2.40;;
17380;SDS011;8808;52.478;13.378;2023-05-10T13:38:36;4.72;;;2.35;;
17380;SDS011;8808;52.478;13.378;2023-05-10T13:41:03;3.10;;;2.40;;
17380;SDS011;8808;52.478;13.378;2023-05-10T13:43:30;5.28;;;2.70;;
17380;SDS011;8808;52.478;13.378;2023-05-10T13:45:57;2.60;;;2.10;;
17380;SDS011;8808;52.478;13.378;2023-05-10T13:48:24;4.05;;;2.03;;
17380;SDS011;8808;52.478;13.378;2023-05-10T13:50:51;5.43;;;2.30;;
17380;SDS011;8808;52.478;13.378;2023-05-10T13:53:19;5.07;;;2.53;;
17380;SDS011;8808;52.478;13.378;2023-05-10T13:55:46;3.22;;;2.22;;
17380;SDS011;8808;52.478;13.378;2023-05-10T13:58:13;2.88;;;2.05;;
17380;SDS011;8808;52.478;13.378;2023-05-10T14:00:40;3.85;;;2.10;;
17380;SDS011;8808;52.478;13.378;2023-05-10T14:03:07;2.45;;;1.98;;
17380;SDS011;8808;52.478;13.378;2023-05-10T14:05:35;3.40;;;1.95;;
17380;SDS011;8808;52.478;13.378;2023-05-10T14:08:03;3.30;;;2.17;;
17380;SDS011;8808;52.478;13.378;2023-05-10T14:10:31;4.22;;;2.40;;
17380;SDS011;8808;52.478;13.378;2023-05-10T14:12:58;7.93;;;2.92;;
17380;SDS011;8808;52.478;13.378;2023-05-10T14:15:25;5.65;;;2.30;;
17380;SDS011;8808;52.478;13.378;2023-05-10T14:17:52;6.70;;;3.50;;
17380;SDS011;8808;52.478;13.378;2023-05-10T14:20:19;3.58;;;2.13;;
17380;SDS011;8808;52.478;13.378;2023-05-10T14:22:46;4.22;;;2.00;;
17380;SDS011;8808;52.478;13.378;2023-05-10T14:25:13;3.53;;;2.28;;
17380;SDS011;8808;52.478;13.378;2023-05-10T14:27:41;3.83;;;2.28;;
17380;SDS011;8808;52.478;13.378;2023-05-10T14:30:08;9.13;;;2.97;;
17380;SDS011;8808;52.478;13.378;2023-05-10T14:32:36;3.05;;;2.03;;
17380;SDS011;8808;52.478;13.378;2023-05-10T14:35:03;7.47;;;2.28;;
17380;SDS011;8808;52.478;13.378;2023-05-10T14:37:31;3.63;;;2.10;;
17380;SDS011;8808;52.478;13.378;2023-05-10T14:39:58;3.75;;;2.15;;
17380;SDS011;8808;52.478;13.378;2023-05-10T14:42:25;4.35;;;2.30;;
17380;SDS011;8808;52.478;13.378;2023-05-10T14:44:54;2.95;;;2.42;;
17380;SDS011;8808;52.478;13.378;2023-05-10T14:47:21;3.25;;;1.95;;
17380;SDS011;8808;52.478;13.378;2023-05-10T14:49:48;5.10;;;2.47;;
17380;SDS011;8808;52.478;13.378;2023-05-10T14:52:15;2.45;;;2.08;;
17380;SDS011;8808;52.478;13.378;2023-05-10T14:54:42;3.17;;;1.95;;
17380;SDS011;8808;52.478;13.378;2023-05-10T14:57:10;3.88;;;2.42;;